createdAt,value
2023-03-22T00:00:19.823Z,2.55
2023-03-22T00:02:49.970Z,2.30
2023-03-22T00:05:18.873Z,3.03
2023-03-22T00:07:50.315Z,2.90
2023-03-22T00:10:19.370Z,4.20
2023-03-22T00:12:48.218Z,5.22
2023-03-22T00:15:17.176Z,6.88
2023-03-22T00:17:46.094Z,6.63
2023-03-22T00:20:19.656Z,6.28
2023-03-22T00:22:49.598Z,4.82
2023-03-22T00:25:19.244Z,3.70
2023-03-22T00:27:48.257Z,3.25
2023-03-22T00:30:17.372Z,3.10
2023-03-22T00:32:46.407Z,3.10
2023-03-22T00:35:16.682Z,3.00
2023-03-22T00:37:45.482Z,2.65
2023-03-22T00:40:18.150Z,2.70
2023-03-22T00:42:47.138Z,3.58
2023-03-22T00:45:16.503Z,4.35
2023-03-22T00:47:45.707Z,4.25
2023-03-22T00:50:16.100Z,3.90
2023-03-22T00:52:44.913Z,4.13
2023-03-22T00:55:13.685Z,3.97
2023-03-22T00:57:42.458Z,3.90
2023-03-22T01:00:16.221Z,3.83
2023-03-22T01:02:45.366Z,4.15
2023-03-22T01:05:16.319Z,4.15
2023-03-22T01:07:45.203Z,3.92
2023-03-22T01:10:14.370Z,3.45
2023-03-22T01:12:43.194Z,3.03
2023-03-22T01:15:13.089Z,2.80
2023-03-22T01:17:42.000Z,3.17
2023-03-22T01:20:12.918Z,3.00
2023-03-22T01:22:43.169Z,2.67
2023-03-22T01:25:12.750Z,3.38
2023-03-22T01:27:41.621Z,2.72
2023-03-22T01:30:12.289Z,3.15
2023-03-22T01:32:41.322Z,3.30
2023-03-22T01:35:11.391Z,2.65
2023-03-22T01:37:40.148Z,2.88
2023-03-22T01:40:13.849Z,2.95
2023-03-22T01:42:43.180Z,2.75
2023-03-22T01:45:40.166Z,2.90
2023-03-22T01:48:17.737Z,3.10
2023-03-22T01:50:57.604Z,2.67
2023-03-22T01:53:27.900Z,3.00
2023-03-22T01:56:00.036Z,2.90
2023-03-22T01:58:29.106Z,2.67
2023-03-22T02:00:58.552Z,2.60
2023-03-22T02:03:39.300Z,2.80
2023-03-22T02:06:09.477Z,2.60
2023-03-22T02:08:40.728Z,3.03
2023-03-22T02:11:18.721Z,2.45
2023-03-22T02:14:29.514Z,3.53
2023-03-22T02:17:12.501Z,2.72
2023-03-22T02:20:28.501Z,2.97
2023-03-22T02:23:51.300Z,3.35
2023-03-22T02:27:22.286Z,2.90
2023-03-22T02:30:18.154Z,3.60
2023-03-22T02:33:20.093Z,3.20
2023-03-22T02:36:22.435Z,3.75
2023-03-22T02:39:17.532Z,3.20
2023-03-22T02:42:12.382Z,3.38
2023-03-22T02:44:47.558Z,3.60
2023-03-22T02:47:25.259Z,3.03
2023-03-22T02:50:03.601Z,3.65
2023-03-22T02:52:41.973Z,3.13
2023-03-22T02:55:22.086Z,3.42
2023-03-22T02:57:59.471Z,3.50
2023-03-22T03:00:29.017Z,3.22
2023-03-22T03:03:11.445Z,3.78
2023-03-22T03:05:44.716Z,3.60
2023-03-22T03:08:16.837Z,3.53
2023-03-22T03:10:48.577Z,3.97
2023-03-22T03:13:20.025Z,4.82
2023-03-22T03:15:55.310Z,5.07
2023-03-22T03:18:44.841Z,4.30
2023-03-22T03:21:32.785Z,4.50
2023-03-22T03:24:17.060Z,4.50
2023-03-22T03:27:00.292Z,3.50
2023-03-22T03:29:37.276Z,3.42
2023-03-22T03:32:16.638Z,3.70
2023-03-22T03:34:52.920Z,3.60
2023-03-22T03:37:28.629Z,3.17
2023-03-22T03:40:08.326Z,3.40
2023-03-22T03:42:41.316Z,3.70
2023-03-22T03:45:12.076Z,3.17
2023-03-22T03:47:42.118Z,3.20
2023-03-22T03:50:14.235Z,3.42
2023-03-22T03:52:43.084Z,3.45
2023-03-22T03:55:12.431Z,3.00
2023-03-22T03:57:42.869Z,3.30
2023-03-22T04:00:14.771Z,3.67
2023-03-22T04:02:43.633Z,3.40
2023-03-22T04:05:14.738Z,3.60
2023-03-22T04:07:43.603Z,3.80
2023-03-22T04:10:12.511Z,3.70
2023-03-22T04:12:42.559Z,4.22
2023-03-22T04:15:13.292Z,4.60
2023-03-22T04:17:42.491Z,4.03
2023-03-22T04:20:13.946Z,4.22
2023-03-22T04:22:43.197Z,3.90
2023-03-22T04:25:18.232Z,4.07
2023-03-22T04:27:51.107Z,3.45
2023-03-22T04:30:20.464Z,3.55
2023-03-22T04:32:49.912Z,3.38
2023-03-22T04:35:19.031Z,3.60
2023-03-22T04:37:48.985Z,3.40
2023-03-22T04:40:17.950Z,3.55
2023-03-22T04:42:48.960Z,3.33
2023-03-22T04:45:17.997Z,3.47
2023-03-22T04:47:46.803Z,2.72
2023-03-22T04:50:15.531Z,3.20
2023-03-22T04:52:44.151Z,3.15
2023-03-22T04:55:12.938Z,3.67
2023-03-22T04:57:42.155Z,4.05
2023-03-22T05:00:13.941Z,4.32
2023-03-22T05:02:42.941Z,4.03
2023-03-22T05:05:11.866Z,4.38
2023-03-22T05:07:40.764Z,4.20
2023-03-22T05:10:11.310Z,4.65
2023-03-22T05:12:42.927Z,4.70
2023-03-22T05:15:13.542Z,5.43
2023-03-22T05:17:42.577Z,4.40
2023-03-22T05:20:12.714Z,4.88
2023-03-22T05:22:41.549Z,6.60
2023-03-22T05:25:12.176Z,5.70
2023-03-22T05:27:40.938Z,5.47
2023-03-22T05:30:13.481Z,5.32
2023-03-22T05:32:43.995Z,4.78
2023-03-22T05:35:13.420Z,4.57
2023-03-22T05:37:42.438Z,4.65
2023-03-22T05:40:14.913Z,4.10
2023-03-22T05:42:43.747Z,3.97
2023-03-22T05:45:15.938Z,4.03
2023-03-22T05:47:45.123Z,4.28
2023-03-22T05:50:17.642Z,4.80
2023-03-22T05:52:46.971Z,5.13
2023-03-22T05:55:17.760Z,5.72
2023-03-22T05:57:47.655Z,5.50
2023-03-22T06:00:20.121Z,5.38
2023-03-22T06:02:52.395Z,5.65
2023-03-22T06:05:21.296Z,6.00
2023-03-22T06:07:49.995Z,6.80
2023-03-22T06:10:18.936Z,5.85
2023-03-22T06:12:47.652Z,6.18
2023-03-22T06:15:18.046Z,6.72
2023-03-22T06:17:47.511Z,6.95
2023-03-22T06:20:16.724Z,6.40
2023-03-22T06:22:45.425Z,7.18
2023-03-22T06:25:14.889Z,7.53
2023-03-22T06:27:43.619Z,8.13
2023-03-22T06:30:13.027Z,9.02
2023-03-22T06:32:43.146Z,9.52
2023-03-22T06:35:12.444Z,9.65
2023-03-22T06:37:41.160Z,9.95
2023-03-22T06:40:11.990Z,9.73
2023-03-22T06:42:40.874Z,9.65
2023-03-22T06:45:10.709Z,10.95
2023-03-22T06:47:39.425Z,10.25
2023-03-22T06:50:11.039Z,10.52
2023-03-22T06:52:39.944Z,10.55
2023-03-22T06:55:10.016Z,10.35
2023-03-22T06:57:38.731Z,10.73
2023-03-22T07:00:10.109Z,10.88
2023-03-22T07:02:38.833Z,11.38
2023-03-22T07:05:10.647Z,11.73
2023-03-22T07:07:39.703Z,10.30
2023-03-22T07:10:09.772Z,10.88
2023-03-22T07:12:38.489Z,10.50
2023-03-22T07:15:08.882Z,11.77
2023-03-22T07:17:37.550Z,10.52
2023-03-22T07:20:09.540Z,11.07
2023-03-22T07:22:38.216Z,11.90
2023-03-22T07:25:07.978Z,12.02
2023-03-22T07:27:36.809Z,11.88
2023-03-22T07:30:09.040Z,11.10
2023-03-22T07:32:40.448Z,11.00
2023-03-22T07:35:11.186Z,11.02
2023-03-22T07:37:39.907Z,12.65
2023-03-22T07:40:10.571Z,13.00
2023-03-22T07:42:39.327Z,13.45
2023-03-22T07:45:09.454Z,15.60
2023-03-22T07:47:41.240Z,15.27
2023-03-22T07:50:13.447Z,15.15
2023-03-22T07:52:42.631Z,14.10
2023-03-22T07:55:14.745Z,13.40
2023-03-22T07:57:43.637Z,12.73
2023-03-22T08:00:13.622Z,13.05
2023-03-22T08:02:46.124Z,11.93
2023-03-22T08:05:16.404Z,12.38
2023-03-22T08:07:45.229Z,10.68
2023-03-22T08:10:14.094Z,10.52
2023-03-22T08:12:42.934Z,9.57
2023-03-22T08:15:12.894Z,9.68
2023-03-22T08:17:41.948Z,8.50
2023-03-22T08:20:13.543Z,8.90
2023-03-22T08:22:44.254Z,10.18
2023-03-22T08:25:14.294Z,9.35
2023-03-22T08:27:43.058Z,10.27
2023-03-22T08:30:13.379Z,9.48
2023-03-22T08:32:42.219Z,9.98
2023-03-22T08:35:12.431Z,9.63
2023-03-22T08:37:42.831Z,9.77
2023-03-22T08:40:13.326Z,9.77
2023-03-22T08:42:42.010Z,10.93
2023-03-22T08:45:11.967Z,10.88
2023-03-22T08:47:40.717Z,11.95
2023-03-22T08:50:11.235Z,12.48
2023-03-22T08:52:40.476Z,15.45
2023-03-22T08:55:11.644Z,13.70
2023-03-22T08:57:40.458Z,13.13
2023-03-22T09:00:12.183Z,17.13
2023-03-22T09:02:41.083Z,18.90
2023-03-22T09:05:11.044Z,16.45
2023-03-22T09:07:39.822Z,14.45
2023-03-22T09:10:12.378Z,13.38
2023-03-22T09:12:41.047Z,12.05
2023-03-22T09:15:10.887Z,11.45
2023-03-22T09:17:39.584Z,12.45
2023-03-22T09:20:15.155Z,11.40
2023-03-22T09:22:44.022Z,12.48
2023-03-22T09:25:14.293Z,11.65
2023-03-22T09:27:43.042Z,11.40
2023-03-22T09:30:12.777Z,11.40
2023-03-22T09:32:41.509Z,10.98
2023-03-22T09:35:10.882Z,11.80
2023-03-22T09:37:39.645Z,10.40
2023-03-22T09:40:10.295Z,10.45
2023-03-22T09:42:44.934Z,11.52
2023-03-22T09:45:19.043Z,10.18
2023-03-22T09:47:53.920Z,10.35
2023-03-22T09:50:25.658Z,11.18
2023-03-22T09:52:55.654Z,9.63
2023-03-22T09:55:37.453Z,10.88
2023-03-22T09:58:24.829Z,10.70
2023-03-22T10:01:02.368Z,9.10
2023-03-22T10:03:59.061Z,9.48
2023-03-22T10:06:29.588Z,10.43
2023-03-22T10:09:10.497Z,15.57
2023-03-22T10:11:48.029Z,16.13
2023-03-22T10:14:35.100Z,11.38
2023-03-22T10:17:12.029Z,10.90
2023-03-22T10:19:52.969Z,10.45
2023-03-22T10:22:30.184Z,9.38
2023-03-22T10:25:01.378Z,9.23
2023-03-22T10:27:34.297Z,9.18
2023-03-22T10:30:17.869Z,8.13
2023-03-22T10:32:57.771Z,9.40
2023-03-22T10:35:27.588Z,10.18
2023-03-22T10:38:01.276Z,9.50
2023-03-22T10:40:34.383Z,9.98
2023-03-22T10:43:08.447Z,8.05
2023-03-22T10:45:40.291Z,9.07
2023-03-22T10:48:19.425Z,9.48
2023-03-22T10:50:48.891Z,7.60
2023-03-22T10:53:32.075Z,8.80
2023-03-22T10:56:01.023Z,12.10
2023-03-22T10:58:35.646Z,8.40
2023-03-22T11:01:11.163Z,9.07
2023-03-22T11:03:43.051Z,7.82
2023-03-22T11:06:16.029Z,5.13
2023-03-22T11:08:48.585Z,4.28
2023-03-22T11:11:23.524Z,5.95
2023-03-22T11:14:06.585Z,6.30
2023-03-22T11:16:46.968Z,6.38
2023-03-22T11:19:27.424Z,5.82
2023-03-22T11:21:57.520Z,5.18
2023-03-22T11:24:29.490Z,7.97
2023-03-22T11:27:18.423Z,8.65
2023-03-22T11:29:50.422Z,13.25
2023-03-22T11:32:30.503Z,13.73
2023-03-22T11:35:06.981Z,9.20
2023-03-22T11:37:42.830Z,8.23
2023-03-22T11:40:17.982Z,9.40
2023-03-22T11:42:47.606Z,8.68
2023-03-22T11:45:19.687Z,7.00
2023-03-22T11:47:50.139Z,7.45
2023-03-22T11:50:30.854Z,8.13
2023-03-22T11:53:03.797Z,7.38
2023-03-22T11:55:35.944Z,8.90
2023-03-22T11:58:06.536Z,3.72
2023-03-22T12:00:40.609Z,6.63
2023-03-22T12:03:17.447Z,5.75
2023-03-22T12:05:51.465Z,4.20
2023-03-22T12:08:28.572Z,3.58
2023-03-22T12:11:06.260Z,5.40
2023-03-22T12:13:46.400Z,5.20
2023-03-22T12:16:24.843Z,5.38
2023-03-22T12:19:08.214Z,4.50
2023-03-22T12:21:36.992Z,4.00
2023-03-22T12:24:20.483Z,9.73
2023-03-22T12:26:53.017Z,7.18
2023-03-22T12:29:23.567Z,1.80
2023-03-22T12:32:03.500Z,2.50
2023-03-22T12:34:43.920Z,3.17
2023-03-22T12:37:21.834Z,2.65
2023-03-22T12:39:57.494Z,2.47
2023-03-22T12:42:40.478Z,2.88
2023-03-22T12:45:25.979Z,2.20
2023-03-22T12:48:05.136Z,2.85
2023-03-22T12:50:41.970Z,2.50
2023-03-22T12:53:17.697Z,2.38
2023-03-22T12:55:48.884Z,1.27
2023-03-22T12:58:23.895Z,1.60
2023-03-22T13:00:58.750Z,2.30
2023-03-22T13:03:37.837Z,2.47
2023-03-22T13:06:33.764Z,2.30
2023-03-22T13:09:47.774Z,2.20
2023-03-22T13:12:34.964Z,1.58
2023-03-22T13:15:41.273Z,2.25
2023-03-22T13:18:39.442Z,2.05
2023-03-22T13:21:19.223Z,2.40
2023-03-22T13:24:21.441Z,2.28
2023-03-22T13:26:53.556Z,3.10
2023-03-22T13:29:25.505Z,2.00
2023-03-22T13:32:00.534Z,2.50
2023-03-22T13:34:39.744Z,1.85
2023-03-22T13:37:31.203Z,1.88
2023-03-22T13:40:02.289Z,1.60
2023-03-22T13:42:38.066Z,2.20
2023-03-22T13:45:31.454Z,2.10
2023-03-22T13:48:07.633Z,2.92
2023-03-22T13:50:37.778Z,1.73
2023-03-22T13:53:17.117Z,1.63
2023-03-22T13:56:04.799Z,1.70
2023-03-22T13:58:38.552Z,1.75
2023-03-22T14:01:15.780Z,2.17
2023-03-22T14:03:47.936Z,1.67
2023-03-22T14:06:25.657Z,1.70
2023-03-22T14:09:04.810Z,1.73
2023-03-22T14:11:45.540Z,2.58
2023-03-22T14:14:21.908Z,2.00
2023-03-22T14:16:55.963Z,2.00
2023-03-22T14:19:31.773Z,3.90
